Terminal Aerodrome Forecast
Issued by NWS Sterling, VA

Home | Current Version | Previous Version | Text Only | Print | Product List | Glossary On
Versions: 1 2 3 4 5 6 7 8 9 10 11 12 13 14 15 16 17 18 19 20 21 22 23 24
000
FTUS41 KLWX 212300
TAFIAD
TAF
KIAD 212327Z 2200/2306 27004KT P6SM BKN060
     FM220100 27004KT P6SM SCT060
     FM220400 29011KT P6SM SCT080
     FM221400 33012G22KT P6SM SCT050
     FM222100 33012KT P6SM SKC
     FM222300 33007KT P6SM SKC=

USA.gov is the U.S. government's official web portal to all federal, state and local government web resources and services.